createdAt,value
2017-08-16T00:00:23.824Z,4.70
2017-08-16T00:02:51.351Z,4.83
2017-08-16T00:05:18.946Z,4.80
2017-08-16T00:07:46.492Z,5.10
2017-08-16T00:10:14.833Z,3.97
2017-08-16T00:15:14.968Z,5.20
2017-08-16T00:17:48.227Z,4.70
2017-08-16T00:20:16.173Z,4.80
2017-08-16T00:22:43.710Z,5.67
2017-08-16T00:25:11.429Z,3.90
2017-08-16T00:27:38.947Z,4.77
2017-08-16T00:30:07.598Z,5.10
2017-08-16T00:32:35.163Z,6.23
2017-08-16T00:35:02.760Z,5.13
2017-08-16T00:37:30.339Z,5.30
2017-08-16T00:39:57.932Z,5.10
2017-08-16T00:42:25.562Z,4.93
2017-08-16T00:44:53.130Z,5.73
2017-08-16T00:47:20.676Z,5.30
2017-08-16T00:49:48.238Z,5.10
2017-08-16T00:52:16.963Z,6.73
2017-08-16T00:54:44.612Z,5.20
2017-08-16T00:57:12.309Z,5.40
2017-08-16T00:59:40.054Z,4.97
2017-08-16T01:02:08.569Z,5.27
2017-08-16T01:04:36.084Z,5.50
2017-08-16T01:07:03.787Z,4.80
2017-08-16T01:09:31.390Z,5.00
2017-08-16T01:12:00.573Z,5.03
2017-08-16T01:14:28.413Z,7.27
2017-08-16T01:16:55.995Z,5.63
2017-08-16T01:19:23.849Z,6.17
2017-08-16T01:21:52.205Z,6.53
2017-08-16T01:24:19.755Z,6.37
2017-08-16T01:26:47.402Z,6.30
2017-08-16T01:29:14.985Z,7.07
2017-08-16T01:31:42.502Z,7.00
2017-08-16T01:34:10.031Z,6.73
2017-08-16T01:36:37.550Z,7.07
2017-08-16T01:39:05.171Z,6.70
2017-08-16T01:41:32.733Z,6.17
2017-08-16T01:44:00.427Z,6.30
2017-08-16T01:46:28.863Z,6.07
2017-08-16T01:48:56.362Z,5.93
2017-08-16T01:51:23.963Z,7.27
2017-08-16T01:53:54.174Z,6.13
2017-08-16T01:56:21.934Z,7.43
2017-08-16T01:58:49.487Z,6.43
2017-08-16T02:01:17.103Z,5.43
2017-08-16T02:03:44.681Z,5.63
2017-08-16T02:06:13.099Z,6.17
2017-08-16T02:08:40.737Z,6.50
2017-08-16T02:11:08.267Z,5.73
2017-08-16T02:13:35.799Z,5.97
2017-08-16T02:16:03.316Z,6.80
2017-08-16T02:18:30.874Z,6.93
2017-08-16T02:20:58.440Z,7.10
2017-08-16T02:23:26.155Z,7.20
2017-08-16T02:25:54.099Z,5.83
2017-08-16T02:28:22.464Z,5.93
2017-08-16T02:30:50.012Z,6.00
2017-08-16T02:33:17.559Z,6.47
2017-08-16T02:35:45.095Z,6.27
2017-08-16T02:38:12.782Z,6.67
2017-08-16T02:40:40.419Z,6.30
2017-08-16T02:43:07.906Z,7.53
2017-08-16T02:45:35.540Z,6.27
2017-08-16T02:48:03.093Z,6.10
2017-08-16T02:50:31.639Z,6.10
2017-08-16T02:52:59.163Z,6.20
2017-08-16T02:55:26.916Z,5.83
2017-08-16T02:57:54.610Z,5.43
2017-08-16T03:00:22.134Z,5.90
2017-08-16T03:02:49.738Z,6.97
2017-08-16T03:05:17.663Z,5.70
2017-08-16T03:07:46.207Z,5.73
2017-08-16T03:10:13.711Z,5.60
2017-08-16T03:12:41.260Z,7.30
2017-08-16T03:15:09.441Z,5.90
2017-08-16T03:17:37.420Z,6.37
2017-08-16T03:20:05.023Z,6.63
2017-08-16T03:22:33.114Z,6.63
2017-08-16T03:25:01.170Z,6.73
2017-08-16T03:27:28.704Z,9.63
2017-08-16T03:29:56.276Z,12.00
2017-08-16T03:32:23.830Z,7.23
2017-08-16T03:34:51.443Z,10.50
2017-08-16T03:37:19.014Z,9.90
2017-08-16T03:39:46.551Z,10.10
2017-08-16T03:42:14.950Z,9.70
2017-08-16T03:44:42.467Z,11.23
2017-08-16T03:47:10.783Z,9.67
2017-08-16T03:49:38.532Z,9.13
2017-08-16T03:52:06.104Z,10.63
2017-08-16T03:54:33.647Z,14.90
2017-08-16T03:57:02.017Z,12.83
2017-08-16T03:59:29.540Z,11.93
2017-08-16T04:01:57.091Z,11.30
2017-08-16T04:04:24.776Z,11.20
2017-08-16T04:06:52.433Z,10.17
2017-08-16T04:09:20.193Z,8.33
2017-08-16T04:11:48.039Z,9.20
2017-08-16T04:14:15.550Z,6.97
2017-08-16T04:16:43.113Z,7.57
2017-08-16T04:19:11.527Z,7.20
2017-08-16T04:21:39.313Z,7.30
2017-08-16T04:24:06.894Z,7.93
2017-08-16T04:26:34.771Z,6.70
2017-08-16T04:29:02.334Z,8.60
2017-08-16T04:31:29.881Z,7.73
2017-08-16T04:33:57.592Z,7.27
2017-08-16T04:36:25.120Z,6.73
2017-08-16T04:38:52.703Z,7.33
2017-08-16T04:41:20.532Z,7.10
2017-08-16T04:43:48.431Z,7.70
2017-08-16T04:46:15.959Z,6.73
2017-08-16T04:48:43.617Z,7.17
2017-08-16T04:51:11.340Z,6.37
2017-08-16T04:53:41.984Z,7.00
2017-08-16T04:56:09.710Z,7.40
2017-08-16T04:58:38.115Z,6.60
2017-08-16T05:01:05.882Z,6.57
2017-08-16T05:03:34.049Z,6.50
2017-08-16T05:06:02.437Z,5.90
2017-08-16T05:08:30.742Z,5.60
2017-08-16T05:10:58.290Z,6.50
2017-08-16T05:13:25.828Z,5.20
2017-08-16T05:15:53.602Z,5.50
2017-08-16T05:18:21.170Z,5.43
2017-08-16T05:20:48.760Z,5.30
2017-08-16T05:23:16.299Z,5.60
2017-08-16T05:25:44.045Z,5.53
2017-08-16T05:28:11.635Z,5.03
2017-08-16T05:30:39.274Z,5.30
2017-08-16T05:33:06.887Z,5.73
2017-08-16T05:35:34.688Z,5.33
2017-08-16T05:38:02.287Z,5.23
2017-08-16T05:40:29.879Z,5.27
2017-08-16T05:42:57.408Z,5.13
2017-08-16T05:45:25.148Z,5.50
2017-08-16T05:47:52.714Z,5.30
2017-08-16T05:50:20.552Z,5.10
2017-08-16T05:52:49.350Z,5.00
2017-08-16T05:55:18.018Z,5.60
2017-08-16T05:57:45.829Z,5.43
2017-08-16T06:00:13.462Z,4.83
2017-08-16T06:02:41.092Z,5.10
2017-08-16T06:05:10.072Z,4.43
2017-08-16T06:07:39.184Z,5.00
2017-08-16T06:10:06.893Z,4.97
2017-08-16T06:12:34.490Z,4.60
2017-08-16T06:15:02.064Z,5.27
2017-08-16T06:17:29.691Z,4.30
2017-08-16T06:19:57.235Z,4.17
2017-08-16T06:22:24.841Z,5.07
2017-08-16T06:24:53.246Z,5.00
2017-08-16T06:27:20.929Z,4.70
2017-08-16T06:29:48.489Z,4.93
2017-08-16T06:32:16.004Z,4.80
2017-08-16T06:34:43.582Z,4.67
2017-08-16T06:37:11.147Z,4.30
2017-08-16T06:39:39.670Z,4.87
2017-08-16T06:42:07.991Z,4.90
2017-08-16T06:44:35.577Z,3.90
2017-08-16T06:47:03.106Z,4.47
2017-08-16T06:49:30.682Z,4.57
2017-08-16T06:51:58.211Z,4.53
2017-08-16T06:54:25.828Z,6.17
2017-08-16T06:56:53.374Z,4.60
2017-08-16T06:59:20.950Z,4.67
2017-08-16T07:01:48.538Z,3.70
2017-08-16T07:04:16.202Z,4.60
2017-08-16T07:06:44.840Z,4.40
2017-08-16T07:09:12.388Z,3.97
2017-08-16T07:11:40.220Z,4.10
2017-08-16T07:14:08.461Z,5.20
2017-08-16T07:16:36.663Z,5.07
2017-08-16T07:19:04.248Z,4.30
2017-08-16T07:21:32.532Z,6.93
2017-08-16T07:24:00.054Z,4.43
2017-08-16T07:26:27.643Z,3.80
2017-08-16T07:28:55.426Z,4.73
2017-08-16T07:31:23.680Z,3.70
2017-08-16T07:33:51.207Z,3.90
2017-08-16T07:36:18.760Z,4.03
2017-08-16T07:38:46.525Z,4.33
2017-08-16T07:41:14.212Z,3.73
2017-08-16T07:43:41.751Z,4.40
2017-08-16T07:46:09.333Z,4.73
2017-08-16T07:48:36.846Z,4.00
2017-08-16T07:51:04.498Z,4.00
2017-08-16T07:53:32.522Z,4.40
2017-08-16T07:56:00.549Z,4.20
2017-08-16T07:58:29.909Z,4.30
2017-08-16T08:00:57.739Z,4.00
2017-08-16T08:03:25.448Z,2.90
2017-08-16T08:05:52.977Z,4.00
2017-08-16T08:08:20.545Z,3.97
2017-08-16T08:10:48.120Z,3.90
2017-08-16T08:13:15.671Z,3.50
2017-08-16T08:15:44.166Z,4.50
2017-08-16T08:18:11.848Z,4.93
2017-08-16T08:20:41.291Z,3.63
2017-08-16T08:23:08.826Z,4.07
2017-08-16T08:25:36.322Z,4.10
2017-08-16T08:28:04.086Z,4.00
2017-08-16T08:30:31.596Z,4.60
2017-08-16T08:32:59.149Z,3.67
2017-08-16T08:35:27.391Z,4.20
2017-08-16T08:37:56.698Z,3.57
2017-08-16T08:40:25.450Z,4.40
2017-08-16T08:42:54.222Z,4.63
2017-08-16T08:45:22.712Z,4.33
2017-08-16T08:47:50.860Z,4.27
2017-08-16T08:50:18.642Z,4.50
2017-08-16T08:52:46.173Z,3.70
2017-08-16T08:55:14.602Z,3.80
2017-08-16T08:57:42.164Z,4.30
2017-08-16T09:00:09.977Z,4.30
2017-08-16T09:02:37.638Z,3.77
2017-08-16T09:05:05.223Z,3.90
2017-08-16T09:07:32.959Z,4.07
2017-08-16T09:10:00.465Z,4.13
2017-08-16T09:12:28.034Z,4.03
2017-08-16T09:14:55.735Z,4.20
2017-08-16T09:17:23.242Z,3.60
2017-08-16T09:19:50.760Z,4.30
2017-08-16T09:22:18.586Z,3.77
2017-08-16T09:24:46.259Z,3.50
2017-08-16T09:27:14.889Z,4.50
2017-08-16T09:29:42.395Z,4.10
2017-08-16T09:32:10.501Z,4.10
2017-08-16T09:34:38.644Z,4.07
2017-08-16T09:37:06.146Z,3.70
2017-08-16T09:39:34.934Z,3.67
2017-08-16T09:42:02.432Z,3.70
2017-08-16T09:44:29.984Z,4.03
2017-08-16T09:46:58.763Z,3.97
2017-08-16T09:49:26.280Z,3.90
2017-08-16T09:51:54.563Z,3.67
2017-08-16T09:54:22.987Z,3.80
2017-08-16T09:56:51.064Z,4.03
2017-08-16T09:59:18.641Z,3.53
2017-08-16T10:01:46.250Z,4.30
2017-08-16T10:04:13.762Z,3.60
2017-08-16T10:06:43.172Z,4.80
2017-08-16T10:09:10.930Z,4.13
2017-08-16T10:11:38.566Z,4.17
2017-08-16T10:14:07.199Z,4.53
2017-08-16T10:16:37.543Z,3.77
2017-08-16T10:19:06.225Z,4.30
2017-08-16T10:21:33.960Z,4.03
2017-08-16T10:24:01.531Z,4.20
2017-08-16T10:26:29.250Z,4.10
2017-08-16T10:28:56.794Z,3.70
2017-08-16T10:31:24.539Z,3.60
2017-08-16T10:33:53.290Z,3.90
2017-08-16T10:36:22.284Z,4.00
2017-08-16T10:38:50.052Z,3.90
2017-08-16T10:41:19.078Z,3.70
2017-08-16T10:43:47.715Z,3.60
2017-08-16T10:46:15.285Z,3.50
2017-08-16T10:48:42.847Z,3.07
2017-08-16T10:51:10.378Z,3.20
2017-08-16T10:53:38.057Z,3.47
2017-08-16T10:56:05.547Z,3.50
2017-08-16T10:58:33.132Z,3.47
2017-08-16T11:01:00.634Z,3.30
2017-08-16T11:03:28.180Z,3.20
2017-08-16T11:05:55.774Z,3.80
2017-08-16T11:08:23.368Z,3.20
2017-08-16T11:10:51.627Z,3.17
2017-08-16T11:13:19.464Z,3.70
2017-08-16T11:15:47.131Z,2.53
2017-08-16T11:18:15.446Z,3.30
2017-08-16T11:20:43.085Z,3.17
2017-08-16T11:23:10.714Z,3.13
2017-08-16T11:25:45.394Z,3.40
2017-08-16T11:28:12.982Z,2.60
2017-08-16T11:30:40.559Z,2.50
2017-08-16T11:33:08.155Z,3.13
2017-08-16T11:35:35.735Z,3.10
2017-08-16T11:38:03.314Z,3.13
2017-08-16T11:40:30.938Z,2.53
2017-08-16T11:42:58.464Z,2.57
2017-08-16T11:45:26.553Z,3.40
2017-08-16T11:48:00.099Z,2.70
2017-08-16T11:50:28.170Z,2.90
2017-08-16T11:52:55.805Z,2.80
2017-08-16T11:55:24.110Z,2.97
2017-08-16T11:57:52.487Z,2.97
2017-08-16T12:00:20.414Z,2.30
2017-08-16T12:02:48.057Z,2.80
2017-08-16T12:05:16.410Z,2.50
2017-08-16T12:07:43.969Z,2.60
2017-08-16T12:10:12.302Z,2.67
2017-08-16T12:12:39.874Z,2.87
2017-08-16T12:15:08.567Z,2.40
2017-08-16T12:17:37.827Z,2.50
2017-08-16T12:20:05.375Z,2.57
2017-08-16T12:22:33.046Z,2.23
2017-08-16T12:25:00.561Z,1.97
2017-08-16T12:27:28.064Z,2.30
2017-08-16T12:29:55.769Z,1.83
2017-08-16T12:32:23.278Z,1.87
2017-08-16T12:34:50.780Z,2.00
2017-08-16T12:37:18.499Z,1.97
2017-08-16T12:39:48.250Z,2.23
2017-08-16T12:42:16.759Z,2.47
2017-08-16T12:44:44.297Z,1.90
2017-08-16T12:47:11.838Z,1.97
2017-08-16T12:49:39.346Z,2.93
2017-08-16T12:52:06.916Z,1.70
2017-08-16T12:54:38.399Z,2.10
2017-08-16T12:57:06.113Z,1.70
2017-08-16T12:59:34.560Z,2.20
2017-08-16T13:02:03.402Z,1.87
2017-08-16T13:04:31.585Z,1.63
2017-08-16T13:06:59.283Z,2.00
2017-08-16T13:09:27.726Z,1.90
2017-08-16T13:11:56.286Z,1.67
2017-08-16T13:14:24.075Z,2.20
2017-08-16T13:16:52.455Z,1.93
2017-08-16T13:19:20.878Z,1.73
2017-08-16T13:21:49.063Z,2.50
2017-08-16T13:24:17.151Z,2.20
2017-08-16T13:26:45.605Z,2.10
2017-08-16T13:29:14.226Z,2.20
2017-08-16T13:31:42.660Z,1.93
2017-08-16T13:34:11.018Z,2.60
2017-08-16T13:36:38.586Z,2.60
2017-08-16T13:39:06.118Z,2.10
2017-08-16T13:41:33.736Z,2.20
2017-08-16T13:44:01.463Z,2.20
2017-08-16T13:46:29.403Z,2.30
2017-08-16T13:48:57.464Z,2.70
2017-08-16T13:51:25.032Z,1.90
2017-08-16T13:53:52.557Z,2.50
2017-08-16T13:56:20.278Z,2.07
2017-08-16T13:58:48.683Z,2.40
2017-08-16T14:01:17.615Z,2.40
2017-08-16T14:03:45.658Z,1.83
2017-08-16T14:06:13.272Z,2.03
2017-08-16T14:08:40.794Z,2.33
2017-08-16T14:11:09.255Z,2.37
2017-08-16T14:13:36.844Z,2.20
2017-08-16T14:16:04.421Z,1.70
2017-08-16T14:18:31.919Z,2.10
2017-08-16T14:20:59.595Z,2.30
2017-08-16T14:23:27.158Z,1.87
2017-08-16T14:25:54.721Z,2.30
2017-08-16T14:28:22.292Z,2.47
2017-08-16T14:30:49.855Z,2.13
2017-08-16T14:33:17.430Z,2.67
2017-08-16T14:35:44.938Z,2.17
2017-08-16T14:51:02.558Z,2.13
2017-08-16T14:53:31.665Z,2.20
2017-08-16T14:55:59.396Z,2.20
2017-08-16T14:58:26.956Z,1.93
2017-08-16T15:00:54.502Z,2.23
2017-08-16T15:03:22.202Z,2.60
2017-08-16T15:05:49.867Z,2.20
2017-08-16T15:08:17.369Z,2.03
2017-08-16T15:10:45.248Z,2.00
2017-08-16T15:13:13.413Z,2.07
2017-08-16T15:15:40.964Z,2.40
2017-08-16T15:18:08.565Z,2.20
2017-08-16T15:20:36.177Z,1.90
2017-08-16T15:23:04.648Z,2.37
2017-08-16T15:25:32.226Z,1.90
2017-08-16T15:27:59.939Z,2.30
2017-08-16T15:30:28.173Z,2.90
2017-08-16T15:32:55.692Z,2.87
2017-08-16T15:35:23.247Z,1.93
2017-08-16T15:37:50.975Z,2.23
2017-08-16T15:40:18.558Z,2.73
2017-08-16T15:42:46.138Z,2.50
2017-08-16T15:45:13.702Z,2.40
2017-08-16T15:47:41.226Z,2.63
2017-08-16T15:50:08.836Z,2.53
2017-08-16T15:52:36.333Z,2.47
2017-08-16T15:55:04.640Z,2.47
2017-08-16T15:57:33.391Z,2.20
2017-08-16T16:00:02.393Z,2.20
2017-08-16T16:02:30.303Z,2.40
2017-08-16T16:04:57.817Z,2.70
2017-08-16T16:07:25.795Z,2.77
2017-08-16T16:09:53.542Z,2.40
2017-08-16T16:12:22.999Z,2.40
2017-08-16T16:14:50.581Z,2.97
2017-08-16T16:17:18.513Z,2.40
2017-08-16T16:19:46.236Z,2.33
2017-08-16T16:22:14.256Z,2.47
2017-08-16T16:24:42.732Z,2.53
2017-08-16T16:27:11.157Z,2.23
2017-08-16T16:29:38.843Z,2.00
2017-08-16T16:32:06.435Z,2.60
2017-08-16T16:34:33.959Z,2.07
2017-08-16T16:37:01.483Z,2.10
2017-08-16T16:39:29.531Z,2.30
2017-08-16T16:41:57.673Z,2.50
2017-08-16T16:44:25.172Z,2.90
2017-08-16T16:46:52.740Z,3.10
2017-08-16T16:49:23.477Z,2.53
2017-08-16T16:51:51.852Z,2.60
2017-08-16T16:54:19.470Z,1.90
2017-08-16T16:56:47.048Z,2.57
2017-08-16T16:59:14.775Z,2.50
2017-08-16T17:01:43.475Z,2.80
2017-08-16T17:04:11.703Z,2.77
2017-08-16T17:06:40.112Z,2.50
2017-08-16T17:09:07.620Z,2.10
2017-08-16T17:11:35.267Z,2.47
2017-08-16T17:14:02.828Z,2.17
2017-08-16T17:16:30.442Z,2.40
2017-08-16T17:18:57.985Z,2.27
2017-08-16T17:21:25.635Z,2.30
2017-08-16T17:23:53.205Z,2.10
2017-08-16T17:26:20.815Z,2.00
2017-08-16T17:28:48.405Z,2.20
2017-08-16T17:31:17.034Z,2.10
2017-08-16T17:33:45.126Z,2.40
2017-08-16T17:36:12.655Z,2.70
2017-08-16T17:38:40.217Z,2.10
2017-08-16T17:41:07.891Z,2.47
2017-08-16T17:43:35.439Z,2.17
2017-08-16T17:46:06.455Z,2.30
2017-08-16T17:48:35.680Z,2.40
2017-08-16T17:51:05.723Z,2.00
2017-08-16T17:53:33.743Z,2.20
2017-08-16T17:56:01.315Z,2.20
2017-08-16T17:58:28.881Z,2.27
2017-08-16T18:00:56.465Z,1.90
2017-08-16T18:03:24.011Z,2.27
2017-08-16T18:05:51.562Z,2.50
2017-08-16T18:08:19.188Z,2.60
2017-08-16T18:10:46.740Z,2.40
2017-08-16T18:13:14.322Z,2.00
2017-08-16T18:15:41.914Z,2.30
2017-08-16T18:18:09.543Z,2.40
2017-08-16T18:20:38.753Z,2.17
2017-08-16T18:23:06.743Z,2.57
2017-08-16T18:25:35.238Z,2.27
2017-08-16T18:28:02.808Z,2.43
2017-08-16T18:30:31.187Z,2.87
2017-08-16T18:32:58.741Z,2.17
2017-08-16T18:35:26.363Z,2.50
2017-08-16T18:37:53.893Z,6.57
2017-08-16T18:40:21.479Z,2.37
2017-08-16T18:42:50.112Z,2.80
2017-08-16T18:45:17.751Z,2.73
2017-08-16T18:47:45.964Z,2.40
2017-08-16T18:50:14.260Z,2.37
2017-08-16T18:52:43.125Z,2.13
2017-08-16T18:55:12.984Z,2.43
2017-08-16T18:57:40.517Z,2.50
2017-08-16T19:00:08.941Z,2.07
2017-08-16T19:02:37.161Z,2.30
2017-08-16T19:05:04.718Z,2.03
2017-08-16T19:07:33.073Z,2.10
2017-08-16T19:10:00.615Z,2.53
2017-08-16T19:12:28.274Z,2.50
2017-08-16T19:14:55.820Z,2.90
2017-08-16T19:17:23.711Z,2.70
2017-08-16T19:19:51.957Z,2.70
2017-08-16T19:22:19.489Z,2.60
2017-08-16T19:24:47.280Z,2.80
2017-08-16T19:27:16.877Z,3.37
2017-08-16T19:29:44.426Z,2.73
2017-08-16T19:32:12.215Z,2.60
2017-08-16T19:34:40.690Z,2.50
2017-08-16T19:37:08.364Z,2.03
2017-08-16T19:39:36.572Z,2.20
2017-08-16T19:42:04.861Z,2.63
2017-08-16T19:44:32.593Z,2.80
2017-08-16T19:47:00.118Z,3.90
2017-08-16T19:49:27.666Z,5.23
2017-08-16T19:51:55.656Z,3.00
2017-08-16T19:54:23.705Z,6.20
2017-08-16T19:56:51.277Z,3.47
2017-08-16T19:59:18.866Z,2.40
2017-08-16T20:01:46.765Z,2.60
2017-08-16T20:04:15.054Z,2.27
2017-08-16T20:06:42.622Z,2.23
2017-08-16T20:09:10.164Z,3.10
2017-08-16T20:11:37.825Z,5.03
2017-08-16T20:16:40.059Z,2.57
2017-08-16T20:19:08.521Z,2.70
2017-08-16T20:21:37.112Z,2.97
2017-08-16T20:24:04.665Z,2.97
2017-08-16T20:26:32.356Z,2.87
2017-08-16T20:28:59.960Z,3.07
2017-08-16T20:31:27.735Z,3.03
2017-08-16T20:33:55.283Z,7.10
2017-08-16T20:36:22.909Z,6.37
2017-08-16T20:38:50.523Z,3.73
2017-08-16T20:41:18.953Z,2.77
2017-08-16T20:43:46.580Z,2.83
2017-08-16T20:46:14.385Z,2.70
2017-08-16T20:48:42.630Z,2.90
2017-08-16T20:51:10.205Z,3.40
2017-08-16T20:53:37.796Z,3.53
2017-08-16T20:56:05.328Z,2.93
2017-08-16T20:58:32.854Z,2.70
2017-08-16T21:01:00.441Z,3.40
2017-08-16T21:03:28.251Z,2.77
2017-08-16T21:05:55.815Z,3.20
2017-08-16T21:08:25.802Z,3.27
2017-08-16T21:10:53.993Z,2.73
2017-08-16T21:13:22.336Z,2.63
2017-08-16T21:15:49.984Z,3.63
2017-08-16T21:18:17.536Z,4.17
2017-08-16T21:20:45.234Z,3.03
2017-08-16T21:23:12.769Z,2.87
2017-08-16T21:25:40.863Z,3.50
2017-08-16T21:28:09.532Z,4.17
2017-08-16T21:30:38.697Z,6.70
2017-08-16T21:33:06.274Z,3.37
2017-08-16T21:35:34.707Z,3.27
2017-08-16T21:38:02.244Z,2.53
2017-08-16T21:40:29.867Z,3.07
2017-08-16T21:42:57.393Z,3.50
2017-08-16T21:45:25.817Z,3.27
2017-08-16T21:47:53.663Z,2.80
2017-08-16T21:50:22.136Z,3.00
2017-08-16T21:52:49.718Z,3.13
2017-08-16T21:55:17.252Z,2.80
2017-08-16T21:57:44.808Z,2.67
2017-08-16T22:00:12.491Z,2.50
2017-08-16T22:02:40.921Z,3.10
2017-08-16T22:05:09.300Z,2.30
2017-08-16T22:07:36.968Z,2.50
2017-08-16T22:10:04.896Z,3.50
2017-08-16T22:12:32.392Z,3.30
2017-08-16T22:15:00.777Z,3.67
2017-08-16T22:17:28.272Z,3.23
2017-08-16T22:19:56.052Z,2.83
2017-08-16T22:22:23.605Z,3.33
2017-08-16T22:24:51.327Z,3.33
2017-08-16T22:27:19.716Z,2.50
2017-08-16T22:29:47.489Z,3.20
2017-08-16T22:32:15.021Z,2.73
2017-08-16T22:34:42.544Z,3.00
2017-08-16T22:37:10.199Z,2.73
2017-08-16T22:39:38.411Z,2.83
2017-08-16T22:42:06.221Z,3.03
2017-08-16T22:44:33.885Z,3.00
2017-08-16T22:47:01.390Z,2.77
2017-08-16T22:49:29.493Z,3.23
2017-08-16T22:51:57.579Z,3.07
2017-08-16T22:54:25.091Z,2.70
2017-08-16T22:56:52.619Z,3.50
2017-08-16T22:59:20.330Z,3.10
2017-08-16T23:01:48.353Z,2.87
2017-08-16T23:04:16.438Z,3.17
2017-08-16T23:06:44.009Z,2.83
2017-08-16T23:09:11.710Z,3.03
2017-08-16T23:11:40.139Z,3.10
2017-08-16T23:14:07.654Z,3.23
2017-08-16T23:16:35.315Z,3.33
2017-08-16T23:19:02.982Z,3.30
2017-08-16T23:21:30.645Z,3.13
2017-08-16T23:23:59.094Z,2.97
2017-08-16T23:26:26.738Z,3.67
2017-08-16T23:28:54.289Z,3.10
2017-08-16T23:31:21.803Z,3.40
2017-08-16T23:33:49.359Z,3.33
2017-08-16T23:36:16.851Z,3.40
2017-08-16T23:38:44.412Z,3.40
2017-08-16T23:41:12.069Z,3.70
2017-08-16T23:43:39.573Z,2.97
2017-08-16T23:46:07.852Z,2.73
2017-08-16T23:48:36.159Z,2.80
2017-08-16T23:51:05.131Z,3.43
2017-08-16T23:53:34.147Z,3.13
2017-08-16T23:56:01.660Z,3.63
2017-08-16T23:58:29.236Z,3.47
